Time;durP1;ratioP1;P1;durP2;ratioP2;P2;SDS_P1;SDS_P2;PMS_P1;PMS_P2;Temp;Humidity;BMP_temperature;BMP_pressure;BME280_temperature;BME280_humidity;BME280_pressure;Samples;Min_cycle;Max_cycle;Signal;HPM_P1;HPM_P2
2021/03/04 00:02:11;;;;;;;;;;;;;;;9.76;52.84;101844.31;5087758;28;19912;-77
2021/03/04 00:04:56;;;;;;;;;;;;;;;9.64;52.80;101838.44;5087340;28;20374;-79
2021/03/04 00:07:41;;;;;;;;;;;;;;;9.59;53.68;101841.16;5087938;28;19932;-78
2021/03/04 00:10:26;;;;;;;;;;;;;;;9.41;53.37;101837.19;5072732;28;19912;-78
2021/03/04 00:13:11;;;;;;;;;;;;;;;9.34;53.41;101832.09;5086618;28;19916;-79
2021/03/04 00:15:55;;;;;;;;;;;;;;;9.31;53.58;101835.34;5087157;28;19917;-78
2021/03/04 00:18:39;;;;;;;;;;;;;;;9.23;53.35;101830.50;5071914;28;19913;-79
2021/03/04 00:21:24;;;;;;;;;;;;;;;9.23;54.72;101822.38;5071945;28;19913;-79
2021/03/04 00:24:08;;;;;;;;;;;;;;;9.42;53.31;101823.34;5063653;28;19919;-79
2021/03/04 00:26:52;;;;;;;;;;;;;;;9.15;53.25;101813.97;5089648;28;20465;-79
2021/03/04 00:29:37;;;;;;;;;;;;;;;9.19;54.09;101807.72;5075328;28;20378;-78
2021/03/04 00:32:23;;;;;;;;;;;;;;;9.15;53.79;101806.66;5087745;28;19913;-79
2021/03/04 00:35:08;;;;;;;;;;;;;;;9.47;53.55;101805.41;5064559;28;19912;-78
2021/03/04 00:37:52;;;;;;;;;;;;;;;9.60;52.84;101802.84;5086044;28;19934;-79
2021/03/04 00:40:38;;;;;;;;;;;;;;;9.44;52.03;101796.75;5086852;28;20378;-79
2021/03/04 00:43:22;;;;;;;;;;;;;;;9.42;51.67;101798.91;5075649;28;19916;-79
2021/03/04 00:46:07;;;;;;;;;;;;;;;9.34;51.76;101790.56;5080222;28;19912;-79
2021/03/04 00:48:51;;;;;;;;;;;;;;;9.40;51.78;101787.50;5073745;28;19912;-78
2021/03/04 00:51:36;;;;;;;;;;;;;;;9.48;51.42;101793.44;5072699;28;19912;-79
2021/03/04 00:54:20;;;;;;;;;;;;;;;9.42;51.61;101788.06;5071652;28;19916;-79
2021/03/04 00:57:04;;;;;;;;;;;;;;;9.44;51.83;101772.31;5087484;28;19912;-79
2021/03/04 00:59:49;;;;;;;;;;;;;;;9.35;52.33;101773.97;5076923;28;19920;-78
2021/03/04 01:02:34;;;;;;;;;;;;;;;9.34;52.56;101775.09;5085436;28;19912;-78
2021/03/04 01:05:19;;;;;;;;;;;;;;;9.45;52.39;101767.66;5057133;28;19920;-78
2021/03/04 01:08:04;;;;;;;;;;;;;;;9.34;52.29;101761.50;5082649;28;19912;-78
2021/03/04 01:10:48;;;;;;;;;;;;;;;9.43;52.13;101754.38;5072251;28;19913;-79
2021/03/04 01:13:33;;;;;;;;;;;;;;;9.42;51.83;101752.75;5086618;28;19912;-78
2021/03/04 01:16:17;;;;;;;;;;;;;;;9.33;51.82;101746.31;5085719;28;19916;-78
2021/03/04 01:19:02;;;;;;;;;;;;;;;9.20;51.84;101749.63;5070791;28;19912;-79
2021/03/04 01:21:47;;;;;;;;;;;;;;;9.27;51.63;101742.00;5073967;28;19911;-78
2021/03/04 01:24:32;;;;;;;;;;;;;;;9.27;52.01;101739.28;5062677;28;19920;-78
2021/03/04 01:27:17;;;;;;;;;;;;;;;9.13;51.22;101735.59;5073355;28;19913;-78
2021/03/04 01:30:03;;;;;;;;;;;;;;;9.13;51.51;101737.47;5085826;28;19912;-79
2021/03/04 01:32:48;;;;;;;;;;;;;;;8.88;51.93;101728.41;5070363;28;19912;-78
2021/03/04 01:35:33;;;;;;;;;;;;;;;9.06;51.67;101732.34;5086804;28;19912;-79
2021/03/04 01:38:18;;;;;;;;;;;;;;;9.09;51.54;101725.56;5087064;28;19912;-78
2021/03/04 01:41:03;;;;;;;;;;;;;;;9.02;51.43;101720.44;5085378;28;19912;-79
2021/03/04 01:43:47;;;;;;;;;;;;;;;8.98;51.33;101719.38;5074690;28;19916;-78
2021/03/04 01:46:33;;;;;;;;;;;;;;;8.90;51.51;101711.81;5060867;28;19913;-78
2021/03/04 01:49:19;;;;;;;;;;;;;;;8.78;51.35;101711.34;5071908;28;19912;-78
2021/03/04 01:52:03;;;;;;;;;;;;;;;8.71;51.75;101705.41;5084508;28;19912;-78
2021/03/04 01:54:48;;;;;;;;;;;;;;;9.00;52.45;101711.75;5089632;23;20008;-81
2021/03/04 01:57:33;;;;;;;;;;;;;;;8.87;51.69;101702.34;5047044;28;19921;-81
2021/03/04 02:00:19;;;;;;;;;;;;;;;8.73;52.17;101701.34;5051230;28;19917;-81
2021/03/04 02:03:04;;;;;;;;;;;;;;;8.68;53.10;101695.13;5049001;28;20310;-80
2021/03/04 02:05:49;;;;;;;;;;;;;;;8.58;52.92;101691.34;5054912;28;19913;-79
2021/03/04 02:08:43;;;;;;;;;;;;;;;8.45;53.96;101694.69;5045615;28;19912;-81
2021/03/04 02:11:30;;;;;;;;;;;;;;;8.26;54.51;101685.50;5056160;28;19916;-81
2021/03/04 02:14:28;;;;;;;;;;;;;;;8.25;54.52;101689.28;5059927;28;19912;-81
2021/03/04 02:17:13;;;;;;;;;;;;;;;8.52;54.22;101684.34;5056295;28;19912;-80
2021/03/04 02:20:13;;;;;;;;;;;;;;;8.59;53.60;101679.44;5071637;28;19912;-80
2021/03/04 02:23:27;;;;;;;;;;;;;;;8.36;53.33;101679.25;5054582;28;19927;-79
2021/03/04 02:26:38;;;;;;;;;;;;;;;8.61;52.46;101670.22;5041647;28;20287;-81
2021/03/04 02:29:23;;;;;;;;;;;;;;;8.70;52.17;101665.81;5049194;28;19912;-79
2021/03/04 02:32:08;;;;;;;;;;;;;;;8.80;52.21;101663.06;5043402;28;19916;-81
2021/03/04 02:35:03;;;;;;;;;;;;;;;8.74;52.01;101656.03;5059302;28;19912;-81
2021/03/04 02:38:02;;;;;;;;;;;;;;;8.90;50.27;101658.38;5058399;28;19916;-80
2021/03/04 02:40:49;;;;;;;;;;;;;;;8.67;51.59;101661.78;5056935;28;19917;-79
2021/03/04 02:43:35;;;;;;;;;;;;;;;8.49;53.07;101656.97;5056348;28;19916;-79
2021/03/04 02:46:21;;;;;;;;;;;;;;;8.36;53.66;101658.41;5054648;28;20366;-81
2021/03/04 02:49:06;;;;;;;;;;;;;;;8.16;54.87;101659.25;5062185;28;19916;-80
2021/03/04 02:51:51;;;;;;;;;;;;;;;8.10;57.32;101657.63;5060836;28;20375;-79
2021/03/04 02:54:37;;;;;;;;;;;;;;;8.11;58.49;101655.75;5058554;28;19916;-79
2021/03/04 02:57:23;;;;;;;;;;;;;;;8.04;58.40;101653.31;5057611;28;19916;-80
2021/03/04 03:00:09;;;;;;;;;;;;;;;7.94;59.07;101649.81;5054005;28;19912;-79
2021/03/04 03:02:56;;;;;;;;;;;;;;;7.84;59.12;101642.53;5050493;28;20394;-80
2021/03/04 03:05:44;;;;;;;;;;;;;;;7.83;60.03;101638.19;5041561;28;20300;-79
2021/03/04 03:08:29;;;;;;;;;;;;;;;7.79;60.87;101641.72;5055697;28;19912;-79
2021/03/04 03:11:15;;;;;;;;;;;;;;;7.97;60.64;101631.16;5044511;28;19912;-80
2021/03/04 03:14:00;;;;;;;;;;;;;;;7.85;60.94;101629.81;5053914;28;20364;-79
2021/03/04 03:16:45;;;;;;;;;;;;;;;8.23;60.28;101629.13;5055811;28;19912;-80
2021/03/04 03:19:30;;;;;;;;;;;;;;;8.29;59.45;101628.03;5058492;28;20386;-80
2021/03/04 03:22:15;;;;;;;;;;;;;;;8.43;59.12;101620.94;5070454;28;19919;-81
2021/03/04 03:25:00;;;;;;;;;;;;;;;8.34;59.08;101622.63;5061409;28;20294;-81
2021/03/04 03:27:46;;;;;;;;;;;;;;;8.01;60.52;101626.78;5059015;28;20391;-80
2021/03/04 03:30:31;;;;;;;;;;;;;;;8.04;60.75;101618.09;5060511;28;20330;-79
2021/03/04 03:33:17;;;;;;;;;;;;;;;7.96;61.50;101624.09;5078416;28;20362;-79
2021/03/04 03:36:03;;;;;;;;;;;;;;;8.07;61.12;101617.56;5046794;28;19912;-79
2021/03/04 03:38:47;;;;;;;;;;;;;;;8.25;60.93;101613.44;5044316;28;19916;-78
2021/03/04 03:41:33;;;;;;;;;;;;;;;8.64;59.68;101610.00;5047756;28;19913;-79
2021/03/04 03:44:18;;;;;;;;;;;;;;;8.65;58.22;101607.00;5074384;28;19920;-79
2021/03/04 03:47:04;;;;;;;;;;;;;;;8.46;58.07;101606.84;5073633;28;19912;-81
2021/03/04 03:49:49;;;;;;;;;;;;;;;8.43;57.34;101604.69;5073047;28;19912;-80
2021/03/04 03:52:35;;;;;;;;;;;;;;;8.33;58.12;101610.16;5056893;28;19920;-81
2021/03/04 03:55:20;;;;;;;;;;;;;;;8.35;57.40;101610.69;5051689;28;20371;-78
2021/03/04 03:58:04;;;;;;;;;;;;;;;8.37;56.81;101605.81;5065214;28;19913;-79
2021/03/04 04:00:53;;;;;;;;;;;;;;;8.50;57.28;101605.19;5058585;28;19912;-79
2021/03/04 04:03:38;;;;;;;;;;;;;;;8.00;58.15;101616.22;5073055;28;19920;-79
2021/03/04 04:06:23;;;;;;;;;;;;;;;7.86;58.73;101604.38;5042645;28;19912;-79
2021/03/04 04:09:08;;;;;;;;;;;;;;;7.96;58.63;101605.16;5046302;28;19912;-79
2021/03/04 04:11:52;;;;;;;;;;;;;;;8.19;59.21;101603.69;5046010;28;20390;-78
2021/03/04 04:14:38;;;;;;;;;;;;;;;8.20;58.56;101599.09;5050440;28;19912;-80
2021/03/04 04:17:23;;;;;;;;;;;;;;;8.19;57.87;101598.28;5046646;28;19912;-79
2021/03/04 04:20:07;;;;;;;;;;;;;;;8.23;57.42;101603.97;5056684;28;20298;-80
2021/03/04 04:22:53;;;;;;;;;;;;;;;8.25;56.95;101597.16;5063647;28;19912;-80
2021/03/04 04:25:42;;;;;;;;;;;;;;;8.36;56.93;101589.84;5047508;28;19921;-79
2021/03/04 04:28:28;;;;;;;;;;;;;;;8.13;55.89;101585.84;5046033;28;19912;-79
2021/03/04 04:31:17;;;;;;;;;;;;;;;7.95;56.71;101594.56;5049696;28;19913;-81
2021/03/04 04:34:02;;;;;;;;;;;;;;;7.85;56.63;101587.31;5055797;28;19912;-78
2021/03/04 04:36:46;;;;;;;;;;;;;;;7.94;56.28;101584.81;5056830;28;19912;-80
2021/03/04 04:39:31;;;;;;;;;;;;;;;7.96;56.30;101582.66;5063105;28;19912;-79
2021/03/04 04:42:15;;;;;;;;;;;;;;;7.83;57.11;101578.63;5057222;28;19917;-80
2021/03/04 04:45:01;;;;;;;;;;;;;;;8.04;57.40;101576.66;5046104;28;19916;-79
2021/03/04 04:47:46;;;;;;;;;;;;;;;7.85;58.62;101575.66;5051142;28;19916;-79
2021/03/04 04:50:30;;;;;;;;;;;;;;;7.99;57.78;101582.09;5060328;28;19912;-80
2021/03/04 04:53:15;;;;;;;;;;;;;;;7.93;57.93;101578.59;5060923;28;19913;-79
2021/03/04 04:55:59;;;;;;;;;;;;;;;7.81;57.90;101575.41;5058121;28;19916;-79
2021/03/04 04:58:44;;;;;;;;;;;;;;;7.58;57.97;101568.69;5048744;28;19920;-78
2021/03/04 05:01:28;;;;;;;;;;;;;;;7.70;57.46;101569.22;5060514;28;19916;-80
2021/03/04 05:04:12;;;;;;;;;;;;;;;7.67;57.45;101569.75;5047526;28;19925;-80
2021/03/04 05:06:56;;;;;;;;;;;;;;;7.76;56.49;101569.19;5047656;28;20297;-80
2021/03/04 05:09:41;;;;;;;;;;;;;;;7.80;55.89;101565.66;5057151;28;19912;-81
2021/03/04 05:12:25;;;;;;;;;;;;;;;7.71;55.45;101562.72;5044804;28;19919;-81
2021/03/04 05:15:11;;;;;;;;;;;;;;;7.65;55.57;101558.41;5046646;28;19916;-79
2021/03/04 05:17:56;;;;;;;;;;;;;;;7.72;55.72;101563.50;5045859;28;19912;-80
2021/03/04 05:20:41;;;;;;;;;;;;;;;7.54;55.26;101559.50;5058051;28;19912;-79
2021/03/04 05:23:25;;;;;;;;;;;;;;;7.49;55.66;101562.22;5060967;28;19912;-80
2021/03/04 05:26:10;;;;;;;;;;;;;;;7.40;55.42;101558.44;5043988;28;19912;-79
2021/03/04 05:28:54;;;;;;;;;;;;;;;7.55;55.08;101558.41;5072457;28;19912;-79
2021/03/04 05:31:38;;;;;;;;;;;;;;;7.43;55.84;101544.34;5062133;28;19916;-77
2021/03/04 05:34:23;;;;;;;;;;;;;;;7.51;55.17;101548.41;5060887;28;19912;-78
2021/03/04 05:37:07;;;;;;;;;;;;;;;7.44;55.14;101542.47;5043191;28;19912;-79
2021/03/04 05:39:52;;;;;;;;;;;;;;;7.45;55.33;101541.38;5073130;28;19912;-81
2021/03/04 05:42:36;;;;;;;;;;;;;;;7.44;54.84;101537.88;5042576;28;21393;-80
2021/03/04 05:45:23;;;;;;;;;;;;;;;7.38;55.07;101541.66;5056891;28;19916;-80
2021/03/04 05:48:08;;;;;;;;;;;;;;;7.41;55.52;101533.03;5062791;28;19916;-81
2021/03/04 05:50:55;;;;;;;;;;;;;;;7.58;55.16;101533.50;5046739;28;19913;-82
2021/03/04 05:53:44;;;;;;;;;;;;;;;7.66;55.33;101534.84;5057127;28;19912;-80
2021/03/04 05:56:30;;;;;;;;;;;;;;;7.67;55.01;101526.44;5056269;28;19912;-81
2021/03/04 05:59:16;;;;;;;;;;;;;;;7.68;54.61;101532.66;5071004;28;19912;-80
2021/03/04 06:02:02;;;;;;;;;;;;;;;7.64;55.13;101526.19;5051270;28;20378;-80
2021/03/04 06:04:47;;;;;;;;;;;;;;;7.55;54.68;101527.84;5035753;28;19924;-81
2021/03/04 06:07:32;;;;;;;;;;;;;;;7.55;55.01;101528.66;5047288;28;19912;-81
2021/03/04 06:10:16;;;;;;;;;;;;;;;7.67;54.49;101531.03;5072309;28;19912;-81
2021/03/04 06:13:04;;;;;;;;;;;;;;;7.69;54.13;101529.69;5039943;28;19912;-82
2021/03/04 06:15:51;;;;;;;;;;;;;;;7.75;54.02;101525.06;5044623;28;19932;-83
2021/03/04 06:18:40;;;;;;;;;;;;;;;7.67;54.34;101531.84;5058533;28;19912;-80
2021/03/04 06:21:26;;;;;;;;;;;;;;;7.80;54.41;101530.47;5040893;28;20402;-81
2021/03/04 06:24:12;;;;;;;;;;;;;;;7.62;54.18;101534.56;5063604;28;19916;-81
2021/03/04 06:26:56;;;;;;;;;;;;;;;7.48;54.80;101538.94;5056881;28;19912;-81
2021/03/04 06:29:50;;;;;;;;;;;;;;;7.54;55.09;101542.44;5067594;28;19912;-79
2021/03/04 06:32:36;;;;;;;;;;;;;;;7.69;54.66;101545.94;5061792;28;19913;-79
2021/03/04 06:35:23;;;;;;;;;;;;;;;7.80;53.85;101543.19;5055821;28;19913;-79
2021/03/04 06:38:14;;;;;;;;;;;;;;;7.90;53.85;101548.56;5056424;28;19912;-78
2021/03/04 06:41:00;;;;;;;;;;;;;;;7.80;54.35;101543.19;5047462;28;19912;-78
2021/03/04 06:43:46;;;;;;;;;;;;;;;7.57;55.31;101548.09;5057153;28;19916;-78
2021/03/04 06:46:30;;;;;;;;;;;;;;;7.79;54.66;101544.25;5073314;28;19913;-78
2021/03/04 06:49:15;;;;;;;;;;;;;;;7.83;54.66;101545.31;5062616;28;19913;-78
2021/03/04 06:52:02;;;;;;;;;;;;;;;7.89;54.63;101544.22;5074586;28;19920;-78
2021/03/04 06:54:46;;;;;;;;;;;;;;;8.05;54.16;101537.66;5072001;28;19916;-78
2021/03/04 06:57:31;;;;;;;;;;;;;;;8.07;54.03;101541.72;5042606;28;19912;-78
2021/03/04 07:00:19;;;;;;;;;;;;;;;8.07;53.88;101535.50;5058717;28;19912;-78
2021/03/04 07:03:04;;;;;;;;;;;;;;;8.03;55.21;101547.94;5059482;28;19916;-78
2021/03/04 07:05:49;;;;;;;;;;;;;;;8.06;54.89;101534.69;5059554;28;19920;-78
2021/03/04 07:08:34;;;;;;;;;;;;;;;8.18;54.34;101541.69;5073212;28;19912;-78
2021/03/04 07:11:20;;;;;;;;;;;;;;;8.06;55.08;101550.94;5057915;28;19912;-79
2021/03/04 07:14:06;;;;;;;;;;;;;;;8.05;54.98;101546.59;5049487;28;19912;-77
2021/03/04 07:16:51;;;;;;;;;;;;;;;7.90;55.83;101545.84;5045964;28;19912;-79
2021/03/04 07:19:36;;;;;;;;;;;;;;;8.03;55.68;101542.53;5058022;28;20371;-78
2021/03/04 07:22:22;;;;;;;;;;;;;;;8.07;55.81;101540.91;5048258;28;20382;-78
2021/03/04 07:25:07;;;;;;;;;;;;;;;8.01;56.24;101550.16;5056895;28;19917;-79
2021/03/04 07:27:52;;;;;;;;;;;;;;;8.17;55.97;101543.56;5041553;28;19912;-78
2021/03/04 07:30:37;;;;;;;;;;;;;;;8.25;56.37;101548.41;5061242;28;19920;-78
2021/03/04 07:33:22;;;;;;;;;;;;;;;8.27;56.69;101540.00;5046697;28;20301;-78
2021/03/04 07:36:08;;;;;;;;;;;;;;;8.38;56.72;101545.09;5042261;28;19912;-78
2021/03/04 07:38:56;;;;;;;;;;;;;;;8.49;56.40;101548.56;5071217;28;20375;-78
2021/03/04 07:41:42;;;;;;;;;;;;;;;8.57;56.80;101539.84;5057181;28;19912;-78
2021/03/04 07:44:31;;;;;;;;;;;;;;;8.89;56.43;101548.28;5057952;28;19916;-79
2021/03/04 07:47:23;;;;;;;;;;;;;;;9.11;56.09;101547.81;5072329;28;19912;-80
2021/03/04 07:50:34;;;;;;;;;;;;;;;9.09;55.53;101551.94;5072303;28;20294;-77
2021/03/04 07:53:19;;;;;;;;;;;;;;;9.12;55.48;101546.72;5076467;28;19912;-79
2021/03/04 07:56:04;;;;;;;;;;;;;;;9.20;55.64;101537.97;5110667;22;19920;-90
2021/03/04 07:58:48;;;;;;;;;;;;;;;9.18;55.89;101539.38;5053213;28;19924;-89
2021/03/04 08:01:34;;;;;;;;;;;;;;;9.20;55.03;101540.69;5079379;28;20624;-90
2021/03/04 08:04:20;;;;;;;;;;;;;;;9.24;55.87;101549.09;5069609;28;20382;-90
2021/03/04 08:07:04;;;;;;;;;;;;;;;9.14;56.39;101543.75;5083454;28;19933;-90
2021/03/04 08:09:49;;;;;;;;;;;;;;;9.13;56.66;101547.56;5081722;28;19912;-91
2021/03/04 08:12:45;;;;;;;;;;;;;;;9.23;56.81;101544.75;5075915;28;19912;-91
2021/03/04 08:15:34;;;;;;;;;;;;;;;9.22;56.79;101549.34;5062997;28;19916;-89
2021/03/04 08:18:21;;;;;;;;;;;;;;;9.23;56.74;101537.41;5064859;28;19912;-89
2021/03/04 08:21:08;;;;;;;;;;;;;;;9.29;56.79;101541.69;5063696;28;20298;-88
2021/03/04 08:23:53;;;;;;;;;;;;;;;9.20;56.75;101537.16;5076617;28;19915;-87
2021/03/04 08:26:38;;;;;;;;;;;;;;;9.17;57.21;101543.16;5064031;28;20378;-90
2021/03/04 08:29:24;;;;;;;;;;;;;;;9.30;57.07;101539.78;5078094;28;20374;-90
2021/03/04 08:32:12;;;;;;;;;;;;;;;9.40;56.15;101536.97;5070364;28;19912;-88
2021/03/04 08:34:56;;;;;;;;;;;;;;;9.60;56.51;101535.97;5062662;28;19913;-89
2021/03/04 08:37:41;;;;;;;;;;;;;;;9.56;56.56;101543.03;5067050;28;19912;-89
2021/03/04 08:40:25;;;;;;;;;;;;;;;9.65;56.56;101539.41;5070703;28;19912;-89
2021/03/04 08:43:11;;;;;;;;;;;;;;;9.77;55.95;101541.72;5056702;28;19912;-89
2021/03/04 08:45:59;;;;;;;;;;;;;;;9.82;55.03;101542.47;5072135;28;19916;-89
2021/03/04 08:48:47;;;;;;;;;;;;;;;9.87;53.90;101541.59;5072786;28;19913;-89
2021/03/04 08:51:34;;;;;;;;;;;;;;;9.94;53.74;101547.50;5064390;28;19916;-88
2021/03/04 08:54:26;;;;;;;;;;;;;;;10.02;53.69;101538.69;5067076;28;20504;-88
2021/03/04 08:57:11;;;;;;;;;;;;;;;10.19;52.87;101541.78;5071148;28;19912;-87
2021/03/04 09:00:05;;;;;;;;;;;;;;;10.22;53.02;101537.66;5072347;28;19913;-87
2021/03/04 09:02:50;;;;;;;;;;;;;;;10.25;52.56;101546.06;5087125;28;19911;-87
2021/03/04 09:05:34;;;;;;;;;;;;;;;10.22;52.41;101535.75;5060501;28;19916;-87
2021/03/04 09:08:19;;;;;;;;;;;;;;;10.34;52.73;101538.03;5066687;28;19912;-86
2021/03/04 09:11:05;;;;;;;;;;;;;;;10.46;52.90;101537.63;5068326;28;19912;-86
2021/03/04 09:13:50;;;;;;;;;;;;;;;10.58;51.97;101530.59;5069698;28;19912;-87
2021/03/04 09:16:41;;;;;;;;;;;;;;;10.63;51.52;101525.09;5074343;28;19912;-88
2021/03/04 09:19:32;;;;;;;;;;;;;;;10.69;51.44;101523.09;5070543;28;19911;-87
2021/03/04 09:22:16;;;;;;;;;;;;;;;10.72;51.51;101519.78;5076317;28;19911;-87
2021/03/04 09:25:01;;;;;;;;;;;;;;;10.74;51.67;101517.59;5083694;28;19916;-88
2021/03/04 09:27:45;;;;;;;;;;;;;;;10.88;51.63;101521.16;5067103;28;19912;-86
2021/03/04 09:30:30;;;;;;;;;;;;;;;10.83;51.72;101515.78;5091829;28;19920;-87
2021/03/04 09:33:22;;;;;;;;;;;;;;;10.87;51.43;101516.81;5061339;28;19912;-86
2021/03/04 09:36:07;;;;;;;;;;;;;;;10.92;50.38;101513.22;5073032;28;19912;-87
2021/03/04 09:38:53;;;;;;;;;;;;;;;11.02;50.97;101504.91;5073751;28;19912;-87
2021/03/04 09:41:37;;;;;;;;;;;;;;;10.98;50.17;101512.81;5060556;28;19912;-85
2021/03/04 09:44:22;;;;;;;;;;;;;;;11.05;49.96;101502.38;5059219;28;19916;-87
2021/03/04 09:47:07;;;;;;;;;;;;;;;11.12;49.26;101502.00;5069160;28;19912;-86
2021/03/04 09:49:52;;;;;;;;;;;;;;;11.19;49.03;101498.84;5073555;28;20359;-85
2021/03/04 09:52:38;;;;;;;;;;;;;;;11.20;48.43;101500.47;5062669;28;19912;-86
2021/03/04 09:55:22;;;;;;;;;;;;;;;11.22;48.20;101495.56;5084026;28;20294;-86
2021/03/04 09:58:19;;;;;;;;;;;;;;;11.26;49.59;101502.81;5063715;28;19912;-86
2021/03/04 10:01:04;;;;;;;;;;;;;;;11.36;49.42;101499.91;5075641;28;20294;-85
2021/03/04 10:03:48;;;;;;;;;;;;;;;11.48;49.45;101500.19;5087349;28;19912;-86
2021/03/04 10:06:36;;;;;;;;;;;;;;;11.56;49.22;101494.06;5073690;28;19916;-86
2021/03/04 10:09:25;;;;;;;;;;;;;;;11.52;49.56;101489.53;5066963;28;19912;-86
2021/03/04 10:12:10;;;;;;;;;;;;;;;11.58;49.40;101488.28;5058652;28;19912;-86
2021/03/04 10:14:55;;;;;;;;;;;;;;;11.54;48.81;101495.47;5065151;28;19913;-86
2021/03/04 10:17:40;;;;;;;;;;;;;;;11.57;48.90;101486.72;5066468;28;19912;-85
2021/03/04 10:20:25;;;;;;;;;;;;;;;11.59;49.08;101484.47;5059882;28;19912;-84
2021/03/04 10:23:10;;;;;;;;;;;;;;;11.61;48.35;101479.53;5063183;28;20313;-84
2021/03/04 10:25:54;;;;;;;;;;;;;;;11.61;48.29;101471.38;5060133;28;19916;-86
2021/03/04 10:28:39;;;;;;;;;;;;;;;11.70;48.29;101466.81;5085029;28;20371;-85
2021/03/04 10:31:25;;;;;;;;;;;;;;;11.77;48.34;101464.53;5062924;28;19912;-84
2021/03/04 10:34:10;;;;;;;;;;;;;;;11.82;48.23;101461.69;5060865;28;20399;-85
2021/03/04 10:36:54;;;;;;;;;;;;;;;11.96;48.15;101450.75;5057077;28;19912;-84
2021/03/04 10:39:39;;;;;;;;;;;;;;;12.00;48.79;101449.84;5055800;28;19911;-84
2021/03/04 10:42:23;;;;;;;;;;;;;;;11.95;48.30;101440.97;5069219;28;20378;-84
2021/03/04 10:45:08;;;;;;;;;;;;;;;12.00;48.12;101446.28;5060466;28;19916;-84
2021/03/04 10:47:53;;;;;;;;;;;;;;;12.04;47.98;101449.25;5070787;28;19916;-84
2021/03/04 10:50:39;;;;;;;;;;;;;;;12.10;48.14;101437.09;5060468;28;19911;-83
2021/03/04 10:53:23;;;;;;;;;;;;;;;12.04;48.07;101436.38;5068745;28;19916;-82
2021/03/04 10:56:08;;;;;;;;;;;;;;;12.05;47.64;101434.47;5061186;28;20287;-82
2021/03/04 10:58:53;;;;;;;;;;;;;;;12.11;47.96;101433.25;5074732;28;19916;-82
2021/03/04 11:01:37;;;;;;;;;;;;;;;12.14;48.19;101422.53;5068410;28;19913;-82
2021/03/04 11:04:23;;;;;;;;;;;;;;;12.18;48.41;101425.47;5070213;28;19920;-82
2021/03/04 11:07:07;;;;;;;;;;;;;;;12.24;48.63;101419.56;5084806;28;19913;-82
2021/03/04 11:09:52;;;;;;;;;;;;;;;12.29;48.36;101407.75;5070440;28;19919;-83
2021/03/04 11:12:37;;;;;;;;;;;;;;;12.36;48.01;101406.19;5082800;28;20294;-83
2021/03/04 11:15:23;;;;;;;;;;;;;;;12.30;47.42;101401.16;5064562;28;19912;-83
2021/03/04 11:18:08;;;;;;;;;;;;;;;12.40;47.74;101400.91;5077510;28;19912;-83
2021/03/04 11:20:53;;;;;;;;;;;;;;;12.48;48.04;101393.91;5065865;28;20589;-84
2021/03/04 11:23:37;;;;;;;;;;;;;;;12.53;48.07;101382.88;5091334;28;19912;-84
2021/03/04 11:26:22;;;;;;;;;;;;;;;12.58;47.61;101386.28;5073792;28;19916;-85
2021/03/04 11:29:07;;;;;;;;;;;;;;;12.67;47.79;101380.88;5072409;28;19911;-84
2021/03/04 11:31:52;;;;;;;;;;;;;;;12.78;47.55;101377.56;5070738;28;19913;-84
2021/03/04 11:34:37;;;;;;;;;;;;;;;12.86;47.11;101368.59;5089965;28;19912;-84
2021/03/04 11:37:22;;;;;;;;;;;;;;;12.94;47.43;101367.03;5076380;28;19912;-86
2021/03/04 11:40:08;;;;;;;;;;;;;;;12.99;47.64;101357.91;5056009;28;19913;-86
2021/03/04 11:42:55;;;;;;;;;;;;;;;13.05;47.67;101348.47;5100103;28;19916;-85
2021/03/04 11:45:40;;;;;;;;;;;;;;;13.09;46.52;101342.03;5063660;28;19919;-87
2021/03/04 11:48:24;;;;;;;;;;;;;;;13.17;46.39;101335.00;5062019;28;19911;-86
2021/03/04 11:51:08;;;;;;;;;;;;;;;13.23;45.91;101326.38;5079114;28;19912;-86
2021/03/04 11:53:53;;;;;;;;;;;;;;;13.37;44.01;101326.22;5078955;28;19916;-87
2021/03/04 11:56:37;;;;;;;;;;;;;;;13.44;43.33;101321.09;5076921;28;20282;-87
2021/03/04 11:59:21;;;;;;;;;;;;;;;13.49;43.94;101307.28;5074750;28;19912;-87
2021/03/04 12:02:07;;;;;;;;;;;;;;;13.57;43.22;101311.94;5069650;28;19913;-87
2021/03/04 12:04:52;;;;;;;;;;;;;;;13.63;42.99;101296.19;5064780;28;20386;-87
2021/03/04 12:07:37;;;;;;;;;;;;;;;13.74;42.57;101296.69;5072452;28;19912;-87
2021/03/04 12:10:22;;;;;;;;;;;;;;;13.76;41.71;101291.72;5070847;28;20294;-85
2021/03/04 12:13:07;;;;;;;;;;;;;;;13.79;41.55;101285.59;5078182;28;19912;-86
2021/03/04 12:15:52;;;;;;;;;;;;;;;13.82;41.71;101285.72;5063807;28;19912;-85
2021/03/04 12:18:38;;;;;;;;;;;;;;;13.88;41.09;101280.91;5070753;28;19912;-85
2021/03/04 12:21:23;;;;;;;;;;;;;;;13.97;41.34;101278.97;5075814;28;19912;-87
2021/03/04 12:24:08;;;;;;;;;;;;;;;14.14;42.25;101278.94;5074207;28;19912;-87
2021/03/04 12:26:55;;;;;;;;;;;;;;;14.27;41.09;101272.50;5062830;28;19920;-88
2021/03/04 12:29:39;;;;;;;;;;;;;;;14.33;40.17;101264.88;5083738;28;19912;-86
2021/03/04 12:32:24;;;;;;;;;;;;;;;14.39;40.05;101260.88;5100955;28;19912;-89
2021/03/04 12:35:11;;;;;;;;;;;;;;;14.47;40.41;101260.88;5078491;28;20003;-86
2021/03/04 12:37:56;;;;;;;;;;;;;;;14.50;40.41;101251.19;5075691;28;20374;-89
2021/03/04 12:40:41;;;;;;;;;;;;;;;14.50;39.51;101243.78;5067323;28;19912;-88
2021/03/04 12:43:26;;;;;;;;;;;;;;;14.51;40.46;101239.91;5074802;28;19911;-89
2021/03/04 12:46:11;;;;;;;;;;;;;;;14.52;40.29;101235.25;5070226;28;19917;-87
2021/03/04 12:48:56;;;;;;;;;;;;;;;14.66;48.61;101235.81;5080716;28;19916;-81
2021/03/04 12:51:40;;;;;;;;;;;;;;;15.33;48.06;101235.72;5076197;28;19912;-81
2021/03/04 12:54:26;;;;;;;;;;;;;;;15.37;43.94;101222.94;5075174;28;20297;-80
2021/03/04 12:57:11;;;;;;;;;;;;;;;15.34;45.14;101226.34;5086873;28;19912;-81
2021/03/04 12:59:55;;;;;;;;;;;;;;;15.38;43.64;101219.06;5085669;28;19912;-80
2021/03/04 13:02:39;;;;;;;;;;;;;;;15.42;45.64;101213.72;5072052;28;20386;-80
2021/03/04 13:05:25;;;;;;;;;;;;;;;15.46;41.93;101211.09;5064249;28;19920;-79
2021/03/04 13:08:12;;;;;;;;;;;;;;;15.47;43.89;101210.78;5104098;28;20289;-79
2021/03/04 13:10:57;;;;;;;;;;;;;;;15.40;40.73;101205.00;5095447;28;19912;-81
2021/03/04 13:13:43;;;;;;;;;;;;;;;15.33;39.12;101196.56;5074424;28;19912;-80
2021/03/04 13:16:28;;;;;;;;;;;;;;;15.61;44.39;101196.78;5074896;28;19920;-80
2021/03/04 13:19:13;;;;;;;;;;;;;;;15.85;44.11;101199.63;5075270;28;19916;-79
2021/03/04 13:21:57;;;;;;;;;;;;;;;15.92;42.01;101190.84;5075319;28;20366;-79
2021/03/04 13:24:41;;;;;;;;;;;;;;;15.79;42.57;101188.09;5088739;28;19912;-79
2021/03/04 13:27:26;;;;;;;;;;;;;;;16.01;44.06;101195.09;5096696;28;19912;-78
2021/03/04 13:30:10;;;;;;;;;;;;;;;16.02;41.47;101184.91;5069956;28;19912;-79
2021/03/04 13:32:55;;;;;;;;;;;;;;;16.15;42.42;101181.06;5071582;28;19912;-79
2021/03/04 13:35:40;;;;;;;;;;;;;;;16.22;41.96;101178.53;5088858;28;19912;-80
2021/03/04 13:38:24;;;;;;;;;;;;;;;16.34;43.51;101177.75;5072275;28;20382;-82
2021/03/04 13:41:09;;;;;;;;;;;;;;;16.53;43.24;101167.00;5068515;28;19912;-80
2021/03/04 13:43:53;;;;;;;;;;;;;;;16.48;38.26;101161.75;5061602;28;20374;-80
2021/03/04 13:46:38;;;;;;;;;;;;;;;16.26;40.18;101166.53;5066272;28;19935;-82
2021/03/04 13:49:23;;;;;;;;;;;;;;;16.16;39.29;101153.28;5067731;28;19912;-81
2021/03/04 13:52:08;;;;;;;;;;;;;;;15.95;37.59;101152.56;5061901;28;19912;-81
2021/03/04 13:54:52;;;;;;;;;;;;;;;15.85;37.80;101147.50;5086892;28;20379;-81
2021/03/04 13:57:36;;;;;;;;;;;;;;;15.79;37.91;101140.66;5081251;23;19921;-84
2021/03/04 14:00:22;;;;;;;;;;;;;;;15.88;39.72;101144.09;5071615;28;19920;-84
2021/03/04 14:03:06;;;;;;;;;;;;;;;15.99;39.40;101145.25;5064945;28;19912;-83
2021/03/04 14:05:51;;;;;;;;;;;;;;;16.02;37.88;101135.53;5079484;28;19916;-84
2021/03/04 14:08:37;;;;;;;;;;;;;;;15.85;36.88;101133.03;5065320;28;19912;-84
2021/03/04 14:11:22;;;;;;;;;;;;;;;15.86;38.23;101129.91;5065421;28;19912;-83
2021/03/04 14:14:06;;;;;;;;;;;;;;;15.83;39.40;101122.38;5051052;28;19913;-83
2021/03/04 14:16:51;;;;;;;;;;;;;;;16.11;40.13;101128.00;5048386;28;19916;-83
2021/03/04 14:19:35;;;;;;;;;;;;;;;16.07;39.60;101127.09;5051118;28;19912;-84